createdAt,value
2024-04-18T00:00:35.509Z,5.06
2024-04-18T00:03:05.342Z,5.09
2024-04-18T00:05:32.576Z,5.06
2024-04-18T00:08:02.429Z,5.10
2024-04-18T00:10:32.238Z,5.05
2024-04-18T00:13:02.004Z,5.09
2024-04-18T00:15:29.220Z,5.06
2024-04-18T00:17:59.507Z,5.14
2024-04-18T00:20:26.735Z,5.13
2024-04-18T00:22:57.118Z,5.15
2024-04-18T00:25:34.791Z,5.09
2024-04-18T00:28:04.857Z,5.13
2024-04-18T00:30:41.256Z,5.06
2024-04-18T00:33:12.261Z,5.06
2024-04-18T00:35:39.649Z,5.04
2024-04-18T00:38:15.007Z,4.99
2024-04-18T00:40:45.201Z,4.99
2024-04-18T00:43:23.076Z,5.02
2024-04-18T00:45:54.095Z,5.06
2024-04-18T00:48:25.115Z,5.00
2024-04-18T00:50:56.640Z,5.03
2024-04-18T00:53:28.136Z,5.13
2024-04-18T00:55:58.802Z,5.15
2024-04-18T00:58:47.876Z,5.09
2024-04-18T01:01:22.456Z,5.04
2024-04-18T01:03:59.441Z,5.11
2024-04-18T01:06:47.828Z,5.17
2024-04-18T01:09:15.640Z,5.06
2024-04-18T01:12:08.605Z,5.02
2024-04-18T01:14:35.809Z,5.07
2024-04-18T01:17:06.893Z,5.07
2024-04-18T01:19:34.327Z,5.13
2024-04-18T01:22:06.150Z,5.14
2024-04-18T01:24:34.082Z,5.12
2024-04-18T01:27:07.902Z,5.09
2024-04-18T01:29:44.773Z,5.09
2024-04-18T01:32:36.390Z,5.15
2024-04-18T01:35:05.654Z,5.14
2024-04-18T01:37:51.033Z,5.20
2024-04-18T01:40:18.834Z,5.14
2024-04-18T01:43:11.948Z,5.05
2024-04-18T01:45:58.060Z,5.13
2024-04-18T01:48:27.850Z,5.19
2024-04-18T01:51:13.740Z,5.10
2024-04-18T01:53:43.542Z,5.08
2024-04-18T01:56:19.839Z,5.13
2024-04-18T01:58:52.271Z,5.05
2024-04-18T02:01:24.453Z,5.07
2024-04-18T02:03:54.620Z,5.10
2024-04-18T02:06:21.684Z,5.14
2024-04-18T02:08:51.610Z,5.15
2024-04-18T02:11:41.605Z,5.20
2024-04-18T02:14:17.343Z,5.17
2024-04-18T02:16:44.548Z,5.17
2024-04-18T02:19:26.730Z,5.16
2024-04-18T02:22:20.015Z,5.18
2024-04-18T02:25:12.481Z,5.15
2024-04-18T02:27:40.478Z,5.10
2024-04-18T02:30:28.580Z,5.03
2024-04-18T02:33:13.741Z,5.07
2024-04-18T02:35:47.077Z,5.03
2024-04-18T02:38:35.690Z,5.09
2024-04-18T02:41:04.394Z,5.05
2024-04-18T02:43:56.139Z,5.02
2024-04-18T02:46:25.862Z,4.99
2024-04-18T02:49:14.414Z,4.91
2024-04-18T02:51:56.908Z,4.96
2024-04-18T02:54:45.731Z,4.95
2024-04-18T02:57:12.862Z,4.97
2024-04-18T02:59:42.835Z,5.00
2024-04-18T03:02:28.022Z,4.93
2024-04-18T03:05:14.077Z,4.88
2024-04-18T03:07:43.713Z,4.94
2024-04-18T03:10:10.839Z,4.89
2024-04-18T03:13:00.506Z,4.89
2024-04-18T03:15:47.156Z,4.92
2024-04-18T03:18:19.692Z,4.94
2024-04-18T03:20:55.537Z,4.96
2024-04-18T03:23:43.229Z,4.96
2024-04-18T03:26:32.979Z,4.95
2024-04-18T03:29:00.171Z,4.91
2024-04-18T03:31:29.858Z,4.84
2024-04-18T03:33:59.614Z,4.88
2024-04-18T03:36:29.297Z,4.86
2024-04-18T03:39:02.206Z,4.94
2024-04-18T03:41:31.951Z,4.91
2024-04-18T03:44:17.782Z,4.93
2024-04-18T03:46:47.484Z,4.93
2024-04-18T03:49:39.075Z,4.92
2024-04-18T03:52:06.690Z,4.95
2024-04-18T03:54:51.448Z,5.03
2024-04-18T03:57:40.478Z,5.06
2024-04-18T04:00:11.360Z,5.02
2024-04-18T04:02:40.442Z,4.94
2024-04-18T04:05:12.976Z,4.94
2024-04-18T04:07:40.166Z,4.91
2024-04-18T04:10:10.055Z,4.89
2024-04-18T04:12:41.285Z,4.91
2024-04-18T04:15:08.820Z,4.95
2024-04-18T04:17:40.697Z,4.99
2024-04-18T04:20:10.575Z,4.98
2024-04-18T04:22:40.348Z,4.93
2024-04-18T04:25:25.651Z,4.94
2024-04-18T04:27:55.404Z,4.99
2024-04-18T04:30:22.511Z,5.01
2024-04-18T04:32:52.215Z,5.02
2024-04-18T04:35:37.173Z,5.02
2024-04-18T04:38:07.136Z,5.01
2024-04-18T04:40:34.560Z,5.00
2024-04-18T04:43:04.399Z,5.07
2024-04-18T04:45:31.641Z,5.04
2024-04-18T04:48:09.005Z,5.02
2024-04-18T04:51:00.879Z,5.05
2024-04-18T04:53:36.695Z,5.08
2024-04-18T04:56:04.118Z,5.11
2024-04-18T04:58:33.823Z,5.03
2024-04-18T05:01:01.057Z,5.04
2024-04-18T05:03:39.722Z,5.11
2024-04-18T05:06:27.835Z,5.17
2024-04-18T05:09:19.544Z,5.19
2024-04-18T05:11:46.836Z,5.20
2024-04-18T05:14:35.392Z,5.14
2024-04-18T05:17:22.394Z,5.09
2024-04-18T05:20:12.745Z,5.10
2024-04-18T05:22:42.512Z,5.12
2024-04-18T05:25:14.244Z,5.16
2024-04-18T05:27:46.228Z,5.10
2024-04-18T05:30:51.943Z,5.10
2024-04-18T05:33:21.949Z,5.07
2024-04-18T05:35:51.786Z,5.11
2024-04-18T05:38:24.289Z,5.09
2024-04-18T05:40:54.040Z,5.06
2024-04-18T05:43:43.731Z,5.15
2024-04-18T05:46:13.509Z,5.14
2024-04-18T05:48:43.269Z,5.07
2024-04-18T05:51:13.009Z,5.19
2024-04-18T05:54:05.775Z,5.21
2024-04-18T05:56:35.439Z,5.23
2024-04-18T05:59:05.118Z,5.22
2024-04-18T06:01:35.771Z,5.35
2024-04-18T06:04:05.645Z,5.32
2024-04-18T06:06:35.495Z,5.33
2024-04-18T06:09:23.754Z,5.30
2024-04-18T06:11:53.473Z,5.39
2024-04-18T06:14:23.154Z,5.47
2024-04-18T06:16:53.474Z,5.47
2024-04-18T06:19:43.193Z,5.53
2024-04-18T06:22:30.716Z,5.62
2024-04-18T06:25:21.637Z,5.77
2024-04-18T06:27:51.499Z,6.00
2024-04-18T06:30:21.695Z,5.87
2024-04-18T06:32:51.501Z,6.03
2024-04-18T06:35:21.299Z,6.13
2024-04-18T06:37:51.725Z,6.10
2024-04-18T06:40:24.965Z,6.09
2024-04-18T06:42:55.124Z,6.04
2024-04-18T06:45:26.368Z,6.00
2024-04-18T06:47:56.462Z,6.13
2024-04-18T06:50:27.115Z,6.11
2024-04-18T06:52:57.164Z,6.06
2024-04-18T06:55:29.571Z,6.01
2024-04-18T06:57:59.832Z,6.11
2024-04-18T07:00:30.002Z,6.15
2024-04-18T07:02:59.793Z,6.01
2024-04-18T07:05:48.655Z,6.11
2024-04-18T07:08:25.434Z,6.25
2024-04-18T07:11:00.056Z,6.60
2024-04-18T07:13:32.816Z,6.69
2024-04-18T07:16:06.948Z,6.86
2024-04-18T07:18:55.651Z,6.89
2024-04-18T07:21:25.908Z,7.00
2024-04-18T07:24:15.805Z,6.68
2024-04-18T07:26:48.393Z,6.76
2024-04-18T07:29:15.611Z,6.93
2024-04-18T07:31:45.494Z,6.97
2024-04-18T07:34:15.462Z,7.09
2024-04-18T07:36:47.242Z,7.09
2024-04-18T07:39:17.045Z,7.34
2024-04-18T07:41:50.380Z,7.30
2024-04-18T07:44:23.016Z,7.34
2024-04-18T07:46:54.712Z,7.44
2024-04-18T07:49:24.442Z,8.09
2024-04-18T07:51:56.843Z,8.68
2024-04-18T07:54:27.140Z,8.61
2024-04-18T07:56:57.312Z,8.50
2024-04-18T07:59:27.927Z,8.00
2024-04-18T08:01:59.904Z,7.96
2024-04-18T08:04:50.611Z,8.06
2024-04-18T08:07:23.186Z,7.88
2024-04-18T08:09:57.556Z,7.89
2024-04-18T08:12:35.676Z,8.16
2024-04-18T08:15:14.246Z,8.37
2024-04-18T08:17:47.218Z,8.13
2024-04-18T08:20:16.931Z,8.29
2024-04-18T08:22:47.613Z,8.46
2024-04-18T08:25:17.732Z,8.61
2024-04-18T08:27:50.373Z,8.81
2024-04-18T08:30:20.724Z,8.73
2024-04-18T08:32:50.619Z,8.86
2024-04-18T08:35:20.499Z,9.99
2024-04-18T08:37:51.644Z,10.53
2024-04-18T08:40:22.242Z,10.23
2024-04-18T08:42:55.309Z,9.80
2024-04-18T08:45:29.550Z,9.77
2024-04-18T08:48:02.155Z,9.30
2024-04-18T08:50:33.123Z,9.47
2024-04-18T08:53:04.149Z,9.40
2024-04-18T08:55:36.455Z,9.73
2024-04-18T08:58:16.452Z,9.86
2024-04-18T09:00:49.191Z,9.83
2024-04-18T09:03:22.180Z,9.77
2024-04-18T09:05:51.921Z,9.57
2024-04-18T09:08:21.672Z,9.65
2024-04-18T09:10:52.196Z,9.61
2024-04-18T09:13:26.238Z,9.47
2024-04-18T09:15:57.054Z,9.55
2024-04-18T09:18:28.160Z,11.07
2024-04-18T09:20:58.667Z,11.52
2024-04-18T09:23:28.499Z,12.29
2024-04-18T09:25:58.246Z,13.36
2024-04-18T09:28:30.794Z,13.35
2024-04-18T09:31:04.932Z,12.65
2024-04-18T09:33:36.856Z,12.52
2024-04-18T09:36:08.205Z,14.24
2024-04-18T09:38:44.036Z,14.20
2024-04-18T09:41:18.269Z,13.09
2024-04-18T09:44:04.191Z,12.75
2024-04-18T09:46:35.598Z,11.94
2024-04-18T09:49:06.522Z,11.69
2024-04-18T09:51:36.517Z,11.49
2024-04-18T09:54:09.121Z,11.64
2024-04-18T09:56:41.592Z,11.38
2024-04-18T09:59:16.191Z,11.70
2024-04-18T10:01:46.565Z,11.18
2024-04-18T10:04:16.956Z,10.97
2024-04-18T10:06:50.285Z,10.55
2024-04-18T10:09:22.264Z,10.20
2024-04-18T10:11:52.390Z,10.11
2024-04-18T10:14:25.251Z,10.22
2024-04-18T10:16:55.269Z,10.37
2024-04-18T10:19:23.655Z,10.63
2024-04-18T10:22:11.405Z,11.01
2024-04-18T10:24:52.784Z,11.52
2024-04-18T10:27:25.084Z,12.14
2024-04-18T10:30:03.153Z,12.58
2024-04-18T10:32:34.892Z,12.56
2024-04-18T10:35:04.621Z,12.25
2024-04-18T10:37:34.352Z,12.16
2024-04-18T10:40:07.896Z,11.96
2024-04-18T10:42:41.401Z,11.76
2024-04-18T10:45:14.163Z,11.67
2024-04-18T10:47:41.651Z,11.74
2024-04-18T10:50:12.480Z,11.77
2024-04-18T10:52:43.588Z,11.32
2024-04-18T10:55:13.432Z,11.88
2024-04-18T10:57:40.920Z,11.53
2024-04-18T11:00:19.071Z,11.77
2024-04-18T11:02:48.986Z,11.54
2024-04-18T11:05:18.936Z,11.63
2024-04-18T11:07:54.966Z,11.93
2024-04-18T11:10:27.146Z,12.22
2024-04-18T11:12:58.241Z,12.16
2024-04-18T11:15:31.933Z,12.51
2024-04-18T11:18:06.048Z,12.34
2024-04-18T11:20:36.116Z,12.12
2024-04-18T11:23:13.615Z,11.80
2024-04-18T11:25:45.632Z,11.86
2024-04-18T11:28:16.428Z,12.18
2024-04-18T11:30:49.346Z,12.14
2024-04-18T11:33:23.184Z,12.27
2024-04-18T11:35:53.645Z,11.99
2024-04-18T11:38:23.770Z,12.16
2024-04-18T11:40:53.519Z,12.03
2024-04-18T11:43:23.264Z,12.32
2024-04-18T11:45:55.681Z,12.06
2024-04-18T11:48:25.715Z,12.08
2024-04-18T11:50:55.646Z,11.94
2024-04-18T11:53:25.381Z,12.05
2024-04-18T11:55:57.606Z,12.17
2024-04-18T11:58:30.872Z,12.09
2024-04-18T12:01:04.083Z,11.97
2024-04-18T12:03:43.580Z,12.10
2024-04-18T12:06:32.470Z,11.67
2024-04-18T12:09:02.425Z,12.28
2024-04-18T12:11:33.448Z,12.10
2024-04-18T12:14:15.541Z,12.17
2024-04-18T12:17:00.419Z,12.33
2024-04-18T12:19:45.885Z,12.69
2024-04-18T12:22:34.140Z,12.50
2024-04-18T12:25:16.734Z,13.50
2024-04-18T12:27:46.555Z,14.35
2024-04-18T12:30:35.568Z,13.99
2024-04-18T12:33:26.437Z,13.43
2024-04-18T12:35:56.378Z,13.85
2024-04-18T12:38:23.497Z,13.88
2024-04-18T12:41:03.774Z,13.50
2024-04-18T12:43:35.255Z,13.98
2024-04-18T12:46:11.572Z,14.19
2024-04-18T12:48:56.936Z,13.65
2024-04-18T12:51:27.190Z,12.93
2024-04-18T12:53:57.672Z,12.91
2024-04-18T12:56:49.428Z,13.19
2024-04-18T12:59:26.019Z,12.86
2024-04-18T13:01:56.001Z,12.85
2024-04-18T13:04:28.520Z,12.56
2024-04-18T13:06:58.590Z,12.38
2024-04-18T13:09:31.355Z,12.94
2024-04-18T13:12:04.830Z,13.08
2024-04-18T13:14:53.993Z,12.99
2024-04-18T13:17:24.383Z,12.92
2024-04-18T13:19:56.834Z,13.57
2024-04-18T13:22:26.523Z,14.06
2024-04-18T13:24:56.430Z,13.94
2024-04-18T13:27:32.616Z,13.28
2024-04-18T13:30:04.960Z,13.51
2024-04-18T13:32:35.174Z,13.96
2024-04-18T13:35:08.489Z,14.60
2024-04-18T13:37:38.499Z,14.66
2024-04-18T13:40:21.319Z,14.19
2024-04-18T13:43:02.509Z,13.33
2024-04-18T13:45:33.853Z,13.11
2024-04-18T13:48:04.745Z,12.67
2024-04-18T13:50:52.887Z,12.82
2024-04-18T13:53:22.710Z,12.80
2024-04-18T13:55:52.677Z,12.74
2024-04-18T13:58:24.140Z,12.98
2024-04-18T14:01:02.872Z,12.86
2024-04-18T14:03:33.198Z,13.12
2024-04-18T14:06:10.468Z,14.02
2024-04-18T14:08:41.217Z,13.62
2024-04-18T14:11:31.055Z,13.21
2024-04-18T14:14:11.429Z,13.05
2024-04-18T14:17:17.428Z,12.88
2024-04-18T14:20:05.380Z,12.76
2024-04-18T14:22:37.883Z,12.83
2024-04-18T14:25:08.264Z,13.31
2024-04-18T14:27:38.218Z,13.44
2024-04-18T14:30:28.369Z,13.50
2024-04-18T14:33:12.836Z,12.82
2024-04-18T14:35:42.904Z,12.69
2024-04-18T14:38:15.369Z,12.61
2024-04-18T14:40:53.271Z,12.56
2024-04-18T14:43:27.878Z,12.41
2024-04-18T14:45:57.907Z,12.62
2024-04-18T14:48:47.690Z,12.47
2024-04-18T14:51:26.372Z,12.39
2024-04-18T14:53:58.765Z,12.04
2024-04-18T14:56:41.708Z,12.24
2024-04-18T14:59:11.404Z,12.07
2024-04-18T15:01:41.114Z,12.27
2024-04-18T15:04:10.877Z,12.24
2024-04-18T15:07:00.825Z,12.33
2024-04-18T15:09:44.560Z,12.60
2024-04-18T15:12:14.678Z,12.75
2024-04-18T15:14:45.067Z,13.16
2024-04-18T15:17:16.441Z,13.40
2024-04-18T15:19:46.711Z,13.24
2024-04-18T15:22:36.049Z,13.08
2024-04-18T15:25:26.921Z,12.96
2024-04-18T15:27:56.897Z,12.94
2024-04-18T15:30:26.985Z,12.46
2024-04-18T15:32:56.922Z,12.44
2024-04-18T15:35:26.662Z,12.28
2024-04-18T15:38:15.433Z,12.40
2024-04-18T15:41:07.725Z,12.16
2024-04-18T15:43:37.778Z,12.09
2024-04-18T15:46:07.847Z,12.11
2024-04-18T15:48:37.852Z,12.24
2024-04-18T15:51:09.540Z,12.13
2024-04-18T15:53:59.468Z,12.02
2024-04-18T15:56:31.755Z,12.09
2024-04-18T15:59:02.026Z,12.07
2024-04-18T16:01:50.758Z,12.30
2024-04-18T16:04:39.487Z,11.94
2024-04-18T16:07:09.312Z,11.97
2024-04-18T16:09:54.340Z,11.89
2024-04-18T16:12:26.934Z,11.79
2024-04-18T16:15:03.476Z,11.81
2024-04-18T16:17:34.354Z,11.80
2024-04-18T16:20:13.920Z,11.80
2024-04-18T16:22:43.803Z,11.69
2024-04-18T16:25:30.411Z,11.69
2024-04-18T16:28:04.067Z,11.69
2024-04-18T16:30:33.965Z,11.62
2024-04-18T16:33:03.942Z,11.67
2024-04-18T16:35:33.727Z,11.61
2024-04-18T16:38:15.441Z,11.67
2024-04-18T16:40:54.306Z,11.67
2024-04-18T16:43:38.265Z,11.63
2024-04-18T16:46:09.196Z,11.66
2024-04-18T16:48:40.088Z,11.57
2024-04-18T16:51:10.070Z,11.40
2024-04-18T16:53:59.485Z,11.40
2024-04-18T16:56:49.192Z,11.54
2024-04-18T16:59:21.671Z,11.41
2024-04-18T17:01:51.576Z,11.37
2024-04-18T17:04:21.573Z,11.28
2024-04-18T17:07:09.572Z,11.37
2024-04-18T17:09:58.973Z,11.39
2024-04-18T17:12:28.809Z,11.32
2024-04-18T17:15:24.021Z,11.28
2024-04-18T17:17:54.054Z,11.34
2024-04-18T17:20:29.909Z,11.32
2024-04-18T17:22:59.837Z,11.27
2024-04-18T17:25:29.846Z,11.28
2024-04-18T17:27:59.782Z,11.26
2024-04-18T17:30:32.158Z,11.11
2024-04-18T17:33:01.934Z,10.99
2024-04-18T17:35:31.650Z,10.85
2024-04-18T17:38:15.082Z,10.78
2024-04-18T17:41:02.549Z,10.68
2024-04-18T17:43:33.864Z,10.64
2024-04-18T17:46:06.568Z,10.58
2024-04-18T17:48:47.722Z,10.64
2024-04-18T17:51:17.798Z,10.55
2024-04-18T17:53:47.605Z,10.48
2024-04-18T17:56:18.069Z,10.48
2024-04-18T17:58:47.818Z,10.34
2024-04-18T18:01:20.283Z,10.24
2024-04-18T18:04:10.353Z,10.16
2024-04-18T18:06:40.193Z,10.26
2024-04-18T18:09:09.978Z,10.21
2024-04-18T18:11:39.869Z,10.25
2024-04-18T18:14:09.716Z,10.18
2024-04-18T18:17:01.828Z,10.24
2024-04-18T18:19:31.808Z,10.18
2024-04-18T18:22:00.617Z,10.10
2024-04-18T18:24:30.465Z,10.12
2024-04-18T18:27:00.225Z,10.07
2024-04-18T18:29:27.381Z,10.12
2024-04-18T18:32:14.806Z,9.99
2024-04-18T18:34:42.884Z,9.99
2024-04-18T18:37:12.810Z,9.93
2024-04-18T18:39:43.071Z,9.95
2024-04-18T18:42:10.406Z,9.89
2024-04-18T18:44:40.283Z,9.82
2024-04-18T18:47:10.036Z,9.76
2024-04-18T18:49:51.768Z,9.71
2024-04-18T18:52:19.650Z,9.76
2024-04-18T18:54:49.947Z,9.70
2024-04-18T18:57:17.111Z,9.67
2024-04-18T18:59:47.063Z,9.58
2024-04-18T19:02:16.882Z,9.54
2024-04-18T19:05:05.029Z,9.49
2024-04-18T19:07:32.210Z,9.48
2024-04-18T19:10:02.274Z,9.47
2024-04-18T19:12:29.465Z,9.37
2024-04-18T19:15:01.450Z,9.37
2024-04-18T19:17:32.063Z,9.39
2024-04-18T19:20:02.012Z,9.40
2024-04-18T19:22:29.154Z,9.34
2024-04-18T19:24:58.837Z,9.29
2024-04-18T19:27:26.056Z,9.26
2024-04-18T19:29:57.234Z,9.27
2024-04-18T19:32:24.967Z,9.22
2024-04-18T19:34:57.371Z,9.21
2024-04-18T19:37:24.466Z,9.20
2024-04-18T19:39:54.708Z,9.17
2024-04-18T19:42:21.797Z,9.08
2024-04-18T19:44:55.792Z,9.05
2024-04-18T19:47:22.882Z,9.04
2024-04-18T19:49:52.546Z,8.95
2024-04-18T19:52:22.532Z,8.94
2024-04-18T19:54:52.579Z,8.92
2024-04-18T19:57:22.315Z,8.88
2024-04-18T19:59:49.463Z,8.84
2024-04-18T20:02:19.336Z,8.73
2024-04-18T20:04:46.476Z,8.70
2024-04-18T20:07:16.412Z,8.68
2024-04-18T20:09:46.300Z,8.57
2024-04-18T20:12:16.070Z,8.52
2024-04-18T20:15:03.238Z,8.51
2024-04-18T20:17:32.991Z,8.45
2024-04-18T20:20:00.124Z,8.50
2024-04-18T20:22:29.813Z,8.43
2024-04-18T20:24:59.605Z,8.41
2024-04-18T20:27:42.323Z,8.36
2024-04-18T20:30:09.940Z,8.33
2024-04-18T20:32:59.696Z,8.28
2024-04-18T20:35:26.874Z,8.31
2024-04-18T20:37:56.991Z,8.22
2024-04-18T20:40:26.869Z,8.28
2024-04-18T20:42:56.612Z,8.15
2024-04-18T20:45:23.818Z,8.16
2024-04-18T20:47:55.224Z,8.17
2024-04-18T20:50:22.359Z,8.06
2024-04-18T20:52:52.128Z,8.03
2024-04-18T20:55:19.209Z,8.02
2024-04-18T20:57:51.646Z,8.01
2024-04-18T21:00:28.146Z,7.93
2024-04-18T21:02:58.002Z,7.89
2024-04-18T21:05:25.063Z,7.92
2024-04-18T21:07:54.953Z,7.91
2024-04-18T21:10:22.152Z,7.89
2024-04-18T21:12:54.498Z,7.87
2024-04-18T21:15:21.716Z,7.83
2024-04-18T21:17:51.606Z,7.79
2024-04-18T21:20:18.707Z,7.74
2024-04-18T21:22:49.487Z,7.66
2024-04-18T21:25:16.931Z,7.69
2024-04-18T21:27:46.683Z,7.70
2024-04-18T21:30:16.822Z,7.71
2024-04-18T21:32:46.655Z,7.72
2024-04-18T21:35:31.199Z,7.62
2024-04-18T21:38:01.125Z,7.59
2024-04-18T21:40:28.964Z,7.61
2024-04-18T21:43:03.837Z,7.56
2024-04-18T21:45:34.281Z,7.54
2024-04-18T21:48:04.230Z,7.52
2024-04-18T21:50:31.628Z,7.48
2024-04-18T21:53:01.852Z,7.48
2024-04-18T21:55:29.094Z,7.49
2024-04-18T21:57:58.838Z,7.40
2024-04-18T22:00:29.288Z,7.42
2024-04-18T22:03:02.053Z,7.39
2024-04-18T22:05:31.907Z,7.42
2024-04-18T22:08:02.020Z,7.37
2024-04-18T22:10:32.012Z,7.45
2024-04-18T22:12:59.207Z,7.44
2024-04-18T22:15:29.080Z,7.53
2024-04-18T22:17:56.435Z,7.51
2024-04-18T22:20:28.856Z,7.48
2024-04-18T22:23:14.405Z,7.51
2024-04-18T22:25:45.411Z,7.54
2024-04-18T22:28:12.601Z,7.41
2024-04-18T22:30:42.441Z,7.37
2024-04-18T22:33:09.613Z,7.35
2024-04-18T22:35:42.337Z,7.31
2024-04-18T22:38:09.492Z,7.30
2024-04-18T22:40:39.632Z,7.30
2024-04-18T22:43:06.782Z,7.31
2024-04-18T22:45:36.509Z,7.29
2024-04-18T22:48:04.184Z,7.28
2024-04-18T22:50:33.973Z,7.27
2024-04-18T22:53:04.020Z,7.24
2024-04-18T22:55:33.807Z,7.24
2024-04-18T22:58:05.137Z,7.21
2024-04-18T23:00:38.984Z,7.20
2024-04-18T23:03:06.990Z,7.25
2024-04-18T23:05:39.903Z,7.27
2024-04-18T23:08:09.810Z,7.26
2024-04-18T23:10:39.563Z,7.29
2024-04-18T23:13:06.966Z,7.25
2024-04-18T23:15:54.682Z,7.31
2024-04-18T23:18:21.982Z,7.34
2024-04-18T23:20:55.462Z,7.34
2024-04-18T23:23:35.761Z,7.26
2024-04-18T23:26:05.634Z,7.28
2024-04-18T23:28:32.815Z,7.17
2024-04-18T23:31:02.646Z,7.23
2024-04-18T23:33:32.650Z,7.20
2024-04-18T23:36:00.988Z,7.19
2024-04-18T23:38:30.745Z,7.23
2024-04-18T23:41:00.580Z,7.22
2024-04-18T23:43:30.422Z,7.16
2024-04-18T23:45:58.032Z,7.16
2024-04-18T23:48:27.923Z,7.17
2024-04-18T23:50:55.233Z,7.14
2024-04-18T23:53:24.956Z,7.17
2024-04-18T23:55:52.178Z,7.17
2024-04-18T23:58:24.688Z,7.22
